Back to Top

Language: 

My Weather Underground Personal Weather Station Historical Data with Graphs...

Delerius Weather Station Historical Data
Daily Summary for April 30, 2017 Units:  Both    English   Metric
« Previous Day
Next Day »
Daily Weekly Monthly Yearly Custom
  High: Low: Average:
Temperature: 61.2 °F /  16.2 °C 45.1 °F /  7.3 °C 52.3 °F /  11.3 °C
Dew Point: 45.5 °F /  7.5 °C 38.6 °F /  3.7 °C 42.6 °F /  5.9 °C
Humidity: 84 % 46 % 71 %
Wind Speed: 16.0 mph /  25.7 km/h - 7 mph /  11.3 km/h
Wind Gust: 27.0 mph /  43.5 km/h - -
Wind:- - ESE
Pressure: 29.84 in /  1010.4 hPa 29.53 in /  999.9 hPa -
Precipitation: 0.00 in /  0 mm    
Historical Graphs
 
 
Tabular Data for April 30, 2017
Time Temperature Dew Point Pressure Wind Wind Speed Wind Gust Humidity Rainfall Rate (Hourly) solar Conditions
00:01 47.3 °F /  8.5 °C 42.7 °F /  5.9 °C 29.84 in /  1010.4 hPa SE 6.0 mph /  9.7 km/h 11.0 mph /  17.7 km/h 84 % 0.00 in /  0 mm 0 W/m2
00:06 47.3 °F /  8.5 °C 42.7 °F /  5.9 °C 29.84 in /  1010.4 hPa SE 7.0 mph /  11.3 km/h 13.0 mph /  20.9 km/h 84 % 0.00 in /  0 mm 0 W/m2
00:11 47.3 °F /  8.5 °C 42.4 °F /  5.8 °C 29.84 in /  1010.4 hPa SE 7.0 mph /  11.3 km/h 13.0 mph /  20.9 km/h 83 % 0.00 in /  0 mm 0 W/m2
00:16 47.3 °F /  8.5 °C 42.4 °F /  5.8 °C 29.84 in /  1010.4 hPa SE 6.0 mph /  9.7 km/h 11.0 mph /  17.7 km/h 83 % 0.00 in /  0 mm 0 W/m2
00:21 47.1 °F /  8.4 °C 41.9 °F /  5.5 °C 29.84 in /  1010.4 hPa SE 6.0 mph /  9.7 km/h 10.0 mph /  16.1 km/h 82 % 0.00 in /  0 mm 0 W/m2
00:26 47.1 °F /  8.4 °C 41.9 °F /  5.5 °C 29.84 in /  1010.4 hPa SE 6.0 mph /  9.7 km/h 10.0 mph /  16.1 km/h 82 % 0.00 in /  0 mm 0 W/m2
00:31 47.1 °F /  8.4 °C 41.9 °F /  5.5 °C 29.83 in /  1010 hPa SE 5.0 mph /  8 km/h 9.0 mph /  14.5 km/h 82 % 0.00 in /  0 mm 0 W/m2
00:36 46.9 °F /  8.3 °C 41.7 °F /  5.4 °C 29.83 in /  1010 hPa SE 5.0 mph /  8 km/h 9.0 mph /  14.5 km/h 82 % 0.00 in /  0 mm 0 W/m2
00:41 46.9 °F /  8.3 °C 41.7 °F /  5.4 °C 29.83 in /  1010 hPa SE 5.0 mph /  8 km/h 9.0 mph /  14.5 km/h 82 % 0.00 in /  0 mm 0 W/m2
00:46 46.9 °F /  8.3 °C 41.7 °F /  5.4 °C 29.83 in /  1010 hPa SE 5.0 mph /  8 km/h 9.0 mph /  14.5 km/h 82 % 0.00 in /  0 mm 0 W/m2
00:51 46.8 °F /  8.2 °C 41.6 °F /  5.3 °C 29.83 in /  1010 hPa SE 4.0 mph /  6.4 km/h 8.0 mph /  12.9 km/h 82 % 0.00 in /  0 mm 0 W/m2
00:56 46.6 °F /  8.1 °C 41.4 °F /  5.2 °C 29.83 in /  1010 hPa SE 5.0 mph /  8 km/h 8.0 mph /  12.9 km/h 82 % 0.00 in /  0 mm 0 W/m2
01:01 46.6 °F /  8.1 °C 41.4 °F /  5.2 °C 29.83 in /  1010 hPa SE 6.0 mph /  9.7 km/h 10.0 mph /  16.1 km/h 82 % 0.00 in /  0 mm 0 W/m2
01:06 46.6 °F /  8.1 °C 41.4 °F /  5.2 °C 29.83 in /  1010 hPa SE 6.0 mph /  9.7 km/h 10.0 mph /  16.1 km/h 82 % 0.00 in /  0 mm 0 W/m2
01:11 46.2 °F /  7.9 °C 41.0 °F /  5 °C 29.83 in /  1010 hPa SE 6.0 mph /  9.7 km/h 10.0 mph /  16.1 km/h 82 % 0.00 in /  0 mm 0 W/m2
01:17 46.2 °F /  7.9 °C 41.0 °F /  5 °C 29.83 in /  1010 hPa SE 6.0 mph /  9.7 km/h 10.0 mph /  16.1 km/h 82 % 0.00 in /  0 mm 0 W/m2
01:22 46.0 °F /  7.8 °C 40.9 °F /  4.9 °C 29.82 in /  1009.7 hPa SE 5.0 mph /  8 km/h 9.0 mph /  14.5 km/h 82 % 0.00 in /  0 mm 0 W/m2
01:27 45.9 °F /  7.7 °C 40.7 °F /  4.8 °C 29.82 in /  1009.7 hPa SE 4.0 mph /  6.4 km/h 7.0 mph /  11.3 km/h 82 % 0.00 in /  0 mm 0 W/m2
01:32 45.9 °F /  7.7 °C 40.7 °F /  4.8 °C 29.82 in /  1009.7 hPa SE 5.0 mph /  8 km/h 8.0 mph /  12.9 km/h 82 % 0.00 in /  0 mm 0 W/m2
01:37 45.7 °F /  7.6 °C 40.5 °F /  4.7 °C 29.82 in /  1009.7 hPa SE 5.0 mph /  8 km/h 8.0 mph /  12.9 km/h 82 % 0.00 in /  0 mm 0 W/m2
01:42 45.5 °F /  7.5 °C 40.6 °F /  4.8 °C 29.82 in /  1009.7 hPa SE 5.0 mph /  8 km/h 8.0 mph /  12.9 km/h 83 % 0.00 in /  0 mm 0 W/m2
01:47 45.3 °F /  7.4 °C 40.5 °F /  4.7 °C 29.82 in /  1009.7 hPa SE 5.0 mph /  8 km/h 8.0 mph /  12.9 km/h 83 % 0.00 in /  0 mm 0 W/m2
01:52 45.3 °F /  7.4 °C 40.5 °F /  4.7 °C 29.81 in /  1009.4 hPa SE 5.0 mph /  8 km/h 8.0 mph /  12.9 km/h 83 % 0.00 in /  0 mm 0 W/m2
01:57 45.1 °F /  7.3 °C 40.3 °F /  4.6 °C 29.81 in /  1009.4 hPa SE 5.0 mph /  8 km/h 9.0 mph /  14.5 km/h 83 % 0.00 in /  0 mm 0 W/m2
02:02 45.1 °F /  7.3 °C 40.3 °F /  4.6 °C 29.81 in /  1009.4 hPa SE 5.0 mph /  8 km/h 9.0 mph /  14.5 km/h 83 % 0.00 in /  0 mm 0 W/m2
02:07 45.1 °F /  7.3 °C 40.6 °F /  4.8 °C 29.81 in /  1009.4 hPa SE 6.0 mph /  9.7 km/h 11.0 mph /  17.7 km/h 84 % 0.00 in /  0 mm 0 W/m2
02:12 45.1 °F /  7.3 °C 40.3 °F /  4.6 °C 29.81 in /  1009.4 hPa SE 7.0 mph /  11.3 km/h 13.0 mph /  20.9 km/h 83 % 0.00 in /  0 mm 0 W/m2
02:15 45.3 °F /  7.4 °C 40.5 °F /  4.7 °C 29.81 in /  1009.4 hPa SE 7.0 mph /  11.3 km/h 13.0 mph /  20.9 km/h 83 % 0.00 in /  0 mm 0 W/m2
02:20 45.3 °F /  7.4 °C 40.5 °F /  4.7 °C 29.81 in /  1009.4 hPa SE 7.0 mph /  11.3 km/h 13.0 mph /  20.9 km/h 83 % 0.00 in /  0 mm 0 W/m2
02:25 45.3 °F /  7.4 °C 40.5 °F /  4.7 °C 29.81 in /  1009.4 hPa SE 6.0 mph /  9.7 km/h 10.0 mph /  16.1 km/h 83 % 0.00 in /  0 mm 0 W/m2
02:30 45.3 °F /  7.4 °C 40.5 °F /  4.7 °C 29.81 in /  1009.4 hPa SE 5.0 mph /  8 km/h 11.0 mph /  17.7 km/h 83 % 0.00 in /  0 mm 0 W/m2
02:35 45.3 °F /  7.4 °C 40.5 °F /  4.7 °C 29.80 in /  1009 hPa SE 6.0 mph /  9.7 km/h 11.0 mph /  17.7 km/h 83 % 0.00 in /  0 mm 0 W/m2
02:40 45.3 °F /  7.4 °C 40.5 °F /  4.7 °C 29.80 in /  1009 hPa SE 5.0 mph /  8 km/h 8.0 mph /  12.9 km/h 83 % 0.00 in /  0 mm 0 W/m2
02:45 45.5 °F /  7.5 °C 40.6 °F /  4.8 °C 29.80 in /  1009 hPa SE 6.0 mph /  9.7 km/h 12.0 mph /  19.3 km/h 83 % 0.00 in /  0 mm 0 W/m2
02:50 45.5 °F /  7.5 °C 40.6 °F /  4.8 °C 29.80 in /  1009 hPa SE 7.0 mph /  11.3 km/h 13.0 mph /  20.9 km/h 83 % 0.00 in /  0 mm 0 W/m2
02:55 45.5 °F /  7.5 °C 40.3 °F /  4.6 °C 29.80 in /  1009 hPa SE 6.0 mph /  9.7 km/h 13.0 mph /  20.9 km/h 82 % 0.00 in /  0 mm 0 W/m2
03:00 45.5 °F /  7.5 °C 40.3 °F /  4.6 °C 29.80 in /  1009 hPa ESE 5.0 mph /  8 km/h 9.0 mph /  14.5 km/h 82 % 0.00 in /  0 mm 0 W/m2
03:05 45.5 °F /  7.5 °C 40.3 °F /  4.6 °C 29.80 in /  1009 hPa SE 5.0 mph /  8 km/h 10.0 mph /  16.1 km/h 82 % 0.00 in /  0 mm 0 W/m2
03:10 45.7 °F /  7.6 °C 40.5 °F /  4.7 °C 29.80 in /  1009 hPa SE 6.0 mph /  9.7 km/h 10.0 mph /  16.1 km/h 82 % 0.00 in /  0 mm 0 W/m2
03:15 45.7 °F /  7.6 °C 40.5 °F /  4.7 °C 29.80 in /  1009 hPa SE 7.0 mph /  11.3 km/h 12.0 mph /  19.3 km/h 82 % 0.00 in /  0 mm 0 W/m2
03:20 45.9 °F /  7.7 °C 40.7 °F /  4.8 °C 29.80 in /  1009 hPa SE 7.0 mph /  11.3 km/h 12.0 mph /  19.3 km/h 82 % 0.00 in /  0 mm 0 W/m2
03:25 45.9 °F /  7.7 °C 40.4 °F /  4.7 °C 29.79 in /  1008.7 hPa SE 7.0 mph /  11.3 km/h 12.0 mph /  19.3 km/h 81 % 0.00 in /  0 mm 0 W/m2
03:30 45.9 °F /  7.7 °C 40.4 °F /  4.7 °C 29.79 in /  1008.7 hPa SE 7.0 mph /  11.3 km/h 11.0 mph /  17.7 km/h 81 % 0.00 in /  0 mm 0 W/m2
03:35 46.0 °F /  7.8 °C 40.5 °F /  4.7 °C 29.79 in /  1008.7 hPa SE 6.0 mph /  9.7 km/h 11.0 mph /  17.7 km/h 81 % 0.00 in /  0 mm 0 W/m2
03:40 46.0 °F /  7.8 °C 40.5 °F /  4.7 °C 29.79 in /  1008.7 hPa SE 5.0 mph /  8 km/h 11.0 mph /  17.7 km/h 81 % 0.00 in /  0 mm 0 W/m2
03:46 45.9 °F /  7.7 °C 40.4 °F /  4.7 °C 29.79 in /  1008.7 hPa SE 4.0 mph /  6.4 km/h 8.0 mph /  12.9 km/h 81 % 0.00 in /  0 mm 0 W/m2
03:51 45.9 °F /  7.7 °C 40.4 °F /  4.7 °C 29.79 in /  1008.7 hPa SE 4.0 mph /  6.4 km/h 7.0 mph /  11.3 km/h 81 % 0.00 in /  0 mm 0 W/m2
03:56 45.9 °F /  7.7 °C 40.4 °F /  4.7 °C 29.78 in /  1008.4 hPa SE 4.0 mph /  6.4 km/h 7.0 mph /  11.3 km/h 81 % 0.00 in /  0 mm 0 W/m2
04:01 45.7 °F /  7.6 °C 40.2 °F /  4.6 °C 29.78 in /  1008.4 hPa SE 4.0 mph /  6.4 km/h 7.0 mph /  11.3 km/h 81 % 0.00 in /  0 mm 0 W/m2
04:06 45.7 °F /  7.6 °C 40.2 °F /  4.6 °C 29.78 in /  1008.4 hPa SE 4.0 mph /  6.4 km/h 7.0 mph /  11.3 km/h 81 % 0.00 in /  0 mm 0 W/m2
04:11 45.7 °F /  7.6 °C 40.2 °F /  4.6 °C 29.78 in /  1008.4 hPa SE 3.0 mph /  4.8 km/h 7.0 mph /  11.3 km/h 81 % 0.00 in /  0 mm 0 W/m2
04:16 45.7 °F /  7.6 °C 40.2 °F /  4.6 °C 29.78 in /  1008.4 hPa SE 3.0 mph /  4.8 km/h 10.0 mph /  16.1 km/h 81 % 0.00 in /  0 mm 0 W/m2
04:21 45.9 °F /  7.7 °C 40.4 °F /  4.7 °C 29.78 in /  1008.4 hPa SE 5.0 mph /  8 km/h 10.0 mph /  16.1 km/h 81 % 0.00 in /  0 mm 0 W/m2
04:26 45.9 °F /  7.7 °C 40.4 °F /  4.7 °C 29.78 in /  1008.4 hPa SE 5.0 mph /  8 km/h 9.0 mph /  14.5 km/h 81 % 0.00 in /  0 mm 0 W/m2
04:31 46.0 °F /  7.8 °C 40.5 °F /  4.7 °C 29.78 in /  1008.4 hPa SE 5.0 mph /  8 km/h 9.0 mph /  14.5 km/h 81 % 0.00 in /  0 mm 0 W/m2
04:36 46.0 °F /  7.8 °C 40.5 °F /  4.7 °C 29.78 in /  1008.4 hPa SE 6.0 mph /  9.7 km/h 12.0 mph /  19.3 km/h 81 % 0.00 in /  0 mm 0 W/m2
04:41 46.0 °F /  7.8 °C 40.5 °F /  4.7 °C 29.77 in /  1008 hPa SE 6.0 mph /  9.7 km/h 12.0 mph /  19.3 km/h 81 % 0.00 in /  0 mm 0 W/m2
04:46 46.0 °F /  7.8 °C 40.5 °F /  4.7 °C 29.77 in /  1008 hPa SE 5.0 mph /  8 km/h 10.0 mph /  16.1 km/h 81 % 0.00 in /  0 mm 0 W/m2
04:51 46.0 °F /  7.8 °C 40.5 °F /  4.7 °C 29.77 in /  1008 hPa SE 5.0 mph /  8 km/h 9.0 mph /  14.5 km/h 81 % 0.00 in /  0 mm 0 W/m2
04:56 45.9 °F /  7.7 °C 40.4 °F /  4.7 °C 29.77 in /  1008 hPa ESE 6.0 mph /  9.7 km/h 9.0 mph /  14.5 km/h 81 % 0.00 in /  0 mm 0 W/m2
05:01 45.9 °F /  7.7 °C 40.4 °F /  4.7 °C 29.77 in /  1008 hPa ESE 5.0 mph /  8 km/h 9.0 mph /  14.5 km/h 81 % 0.00 in /  0 mm 0 W/m2
05:06 45.9 °F /  7.7 °C 40.7 °F /  4.8 °C 29.77 in /  1008 hPa SE 5.0 mph /  8 km/h 10.0 mph /  16.1 km/h 82 % 0.00 in /  0 mm 0 W/m2
05:11 45.7 °F /  7.6 °C 40.5 °F /  4.7 °C 29.77 in /  1008 hPa ESE 5.0 mph /  8 km/h 10.0 mph /  16.1 km/h 82 % 0.00 in /  0 mm 0 W/m2
05:16 45.7 °F /  7.6 °C 40.8 °F /  4.9 °C 29.77 in /  1008 hPa ESE 5.0 mph /  8 km/h 13.0 mph /  20.9 km/h 83 % 0.00 in /  0 mm 0 W/m2
05:21 45.7 °F /  7.6 °C 40.8 °F /  4.9 °C 29.77 in /  1008 hPa SE 5.0 mph /  8 km/h 13.0 mph /  20.9 km/h 83 % 0.00 in /  0 mm 0 W/m2
05:26 45.7 °F /  7.6 °C 40.8 °F /  4.9 °C 29.77 in /  1008 hPa SE 6.0 mph /  9.7 km/h 11.0 mph /  17.7 km/h 83 % 0.00 in /  0 mm 5 W/m2
05:27 45.7 °F /  7.6 °C 40.8 °F /  4.9 °C 29.77 in /  1008 hPa SE 6.0 mph /  9.7 km/h 11.0 mph /  17.7 km/h 83 % 0.00 in /  0 mm 5 W/m2
05:32 45.7 °F /  7.6 °C 40.8 °F /  4.9 °C 29.77 in /  1008 hPa SE 6.0 mph /  9.7 km/h 11.0 mph /  17.7 km/h 83 % 0.00 in /  0 mm 5 W/m2
05:37 45.7 °F /  7.6 °C 40.8 °F /  4.9 °C 29.77 in /  1008 hPa ESE 6.0 mph /  9.7 km/h 13.0 mph /  20.9 km/h 83 % 0.00 in /  0 mm 7 W/m2
05:42 45.7 °F /  7.6 °C 40.8 °F /  4.9 °C 29.76 in /  1007.7 hPa ESE 5.0 mph /  8 km/h 13.0 mph /  20.9 km/h 83 % 0.00 in /  0 mm 9 W/m2
05:47 45.7 °F /  7.6 °C 40.8 °F /  4.9 °C 29.76 in /  1007.7 hPa ESE 4.0 mph /  6.4 km/h 9.0 mph /  14.5 km/h 83 % 0.00 in /  0 mm 11 W/m2
05:53 45.7 °F /  7.6 °C 40.8 °F /  4.9 °C 29.76 in /  1007.7 hPa ESE 5.0 mph /  8 km/h 10.0 mph /  16.1 km/h 83 % 0.00 in /  0 mm 9 W/m2
05:58 45.7 °F /  7.6 °C 40.8 °F /  4.9 °C 29.76 in /  1007.7 hPa ESE 5.0 mph /  8 km/h 10.0 mph /  16.1 km/h 83 % 0.00 in /  0 mm 9 W/m2
06:03 45.7 °F /  7.6 °C 40.8 °F /  4.9 °C 29.76 in /  1007.7 hPa ESE 6.0 mph /  9.7 km/h 12.0 mph /  19.3 km/h 83 % 0.00 in /  0 mm 12 W/m2
06:08 45.7 °F /  7.6 °C 40.8 °F /  4.9 °C 29.76 in /  1007.7 hPa ESE 5.0 mph /  8 km/h 12.0 mph /  19.3 km/h 83 % 0.00 in /  0 mm 12 W/m2
06:13 45.7 °F /  7.6 °C 40.8 °F /  4.9 °C 29.75 in /  1007.3 hPa ESE 4.0 mph /  6.4 km/h 7.0 mph /  11.3 km/h 83 % 0.00 in /  0 mm 14 W/m2
06:18 45.7 °F /  7.6 °C 40.8 °F /  4.9 °C 29.76 in /  1007.7 hPa ESE 4.0 mph /  6.4 km/h 8.0 mph /  12.9 km/h 83 % 0.00 in /  0 mm 25 W/m2
06:23 45.7 °F /  7.6 °C 40.8 °F /  4.9 °C 29.76 in /  1007.7 hPa ESE 3.0 mph /  4.8 km/h 8.0 mph /  12.9 km/h 83 % 0.00 in /  0 mm 28 W/m2
06:28 45.7 °F /  7.6 °C 40.8 °F /  4.9 °C 29.75 in /  1007.3 hPa ESE 2.0 mph /  3.2 km/h 5.0 mph /  8 km/h 83 % 0.00 in /  0 mm 33 W/m2
06:33 45.7 °F /  7.6 °C 40.8 °F /  4.9 °C 29.76 in /  1007.7 hPa ESE 3.0 mph /  4.8 km/h 6.0 mph /  9.7 km/h 83 % 0.00 in /  0 mm 33 W/m2
06:38 45.7 °F /  7.6 °C 40.8 °F /  4.9 °C 29.75 in /  1007.3 hPa ESE 4.0 mph /  6.4 km/h 10.0 mph /  16.1 km/h 83 % 0.00 in /  0 mm 30 W/m2
06:43 45.7 °F /  7.6 °C 40.8 °F /  4.9 °C 29.75 in /  1007.3 hPa SE 4.0 mph /  6.4 km/h 10.0 mph /  16.1 km/h 83 % 0.00 in /  0 mm 35 W/m2
06:48 45.7 °F /  7.6 °C 40.8 °F /  4.9 °C 29.75 in /  1007.3 hPa SE 3.0 mph /  4.8 km/h 9.0 mph /  14.5 km/h 83 % 0.00 in /  0 mm 58 W/m2
06:53 45.9 °F /  7.7 °C 40.7 °F /  4.8 °C 29.75 in /  1007.3 hPa ESE 4.0 mph /  6.4 km/h 10.0 mph /  16.1 km/h 82 % 0.00 in /  0 mm 76 W/m2
06:58 46.0 °F /  7.8 °C 40.9 °F /  4.9 °C 29.75 in /  1007.3 hPa ESE 5.0 mph /  8 km/h 10.0 mph /  16.1 km/h 82 % 0.00 in /  0 mm 95 W/m2
07:03 46.2 °F /  7.9 °C 41.0 °F /  5 °C 29.75 in /  1007.3 hPa ESE 3.0 mph /  4.8 km/h 8.0 mph /  12.9 km/h 82 % 0.00 in /  0 mm 79 W/m2
07:08 46.2 °F /  7.9 °C 40.7 °F /  4.8 °C 29.75 in /  1007.3 hPa ESE 3.0 mph /  4.8 km/h 6.0 mph /  9.7 km/h 81 % 0.00 in /  0 mm 72 W/m2
07:13 46.4 °F /  8 °C 40.9 °F /  4.9 °C 29.75 in /  1007.3 hPa SE 3.0 mph /  4.8 km/h 7.0 mph /  11.3 km/h 81 % 0.00 in /  0 mm 67 W/m2
07:18 46.4 °F /  8 °C 40.9 °F /  4.9 °C 29.75 in /  1007.3 hPa SE 3.0 mph /  4.8 km/h 8.0 mph /  12.9 km/h 81 % 0.00 in /  0 mm 91 W/m2
07:23 46.6 °F /  8.1 °C 40.7 °F /  4.8 °C 29.75 in /  1007.3 hPa ESE 5.0 mph /  8 km/h 11.0 mph /  17.7 km/h 80 % 0.00 in /  0 mm 90 W/m2
07:28 46.6 °F /  8.1 °C 40.7 °F /  4.8 °C 29.74 in /  1007 hPa ESE 5.0 mph /  8 km/h 11.0 mph /  17.7 km/h 80 % 0.00 in /  0 mm 93 W/m2
07:33 46.6 °F /  8.1 °C 40.7 °F /  4.8 °C 29.74 in /  1007 hPa SE 5.0 mph /  8 km/h 12.0 mph /  19.3 km/h 80 % 0.00 in /  0 mm 114 W/m2
07:38 46.8 °F /  8.2 °C 40.9 °F /  4.9 °C 29.74 in /  1007 hPa SE 6.0 mph /  9.7 km/h 12.0 mph /  19.3 km/h 80 % 0.00 in /  0 mm 137 W/m2
07:43 46.8 °F /  8.2 °C 40.9 °F /  4.9 °C 29.74 in /  1007 hPa SE 6.0 mph /  9.7 km/h 10.0 mph /  16.1 km/h 80 % 0.00 in /  0 mm 114 W/m2
07:48 46.9 °F /  8.3 °C 41.1 °F /  5.1 °C 29.74 in /  1007 hPa SE 5.0 mph /  8 km/h 10.0 mph /  16.1 km/h 80 % 0.00 in /  0 mm 121 W/m2
07:53 47.1 °F /  8.4 °C 41.3 °F /  5.2 °C 29.74 in /  1007 hPa ESE 6.0 mph /  9.7 km/h 10.0 mph /  16.1 km/h 80 % 0.00 in /  0 mm 135 W/m2
07:58 47.3 °F /  8.5 °C 41.1 °F /  5.1 °C 29.74 in /  1007 hPa ESE 6.0 mph /  9.7 km/h 11.0 mph /  17.7 km/h 79 % 0.00 in /  0 mm 149 W/m2
08:03 47.5 °F /  8.6 °C 41.3 °F /  5.2 °C 29.74 in /  1007 hPa SE 6.0 mph /  9.7 km/h 11.0 mph /  17.7 km/h 79 % 0.00 in /  0 mm 158 W/m2
08:08 47.7 °F /  8.7 °C 41.1 °F /  5.1 °C 29.73 in /  1006.7 hPa ESE 7.0 mph /  11.3 km/h 12.0 mph /  19.3 km/h 78 % 0.00 in /  0 mm 174 W/m2
08:14 47.8 °F /  8.8 °C 41.3 °F /  5.2 °C 29.73 in /  1006.7 hPa ESE 7.0 mph /  11.3 km/h 13.0 mph /  20.9 km/h 78 % 0.00 in /  0 mm 209 W/m2
08:19 48.0 °F /  8.9 °C 41.8 °F /  5.4 °C 29.73 in /  1006.7 hPa ESE 6.0 mph /  9.7 km/h 13.0 mph /  20.9 km/h 79 % 0.00 in /  0 mm 200 W/m2
08:24 48.4 °F /  9.1 °C 41.8 °F /  5.4 °C 29.73 in /  1006.7 hPa ESE 6.0 mph /  9.7 km/h 11.0 mph /  17.7 km/h 78 % 0.00 in /  0 mm 163 W/m2
08:29 48.6 °F /  9.2 °C 42.0 °F /  5.6 °C 29.72 in /  1006.3 hPa ESE 6.0 mph /  9.7 km/h 11.0 mph /  17.7 km/h 78 % 0.00 in /  0 mm 178 W/m2
08:34 48.7 °F /  9.3 °C 41.8 °F /  5.4 °C 29.72 in /  1006.3 hPa ESE 7.0 mph /  11.3 km/h 14.0 mph /  22.5 km/h 77 % 0.00 in /  0 mm 216 W/m2
08:39 48.9 °F /  9.4 °C 42.0 °F /  5.6 °C 29.72 in /  1006.3 hPa ESE 8.0 mph /  12.9 km/h 16.0 mph /  25.7 km/h 77 % 0.00 in /  0 mm 276 W/m2
08:44 49.3 °F /  9.6 °C 42.0 °F /  5.6 °C 29.72 in /  1006.3 hPa ESE 8.0 mph /  12.9 km/h 16.0 mph /  25.7 km/h 76 % 0.00 in /  0 mm 229 W/m2
08:49 49.5 °F /  9.7 °C 42.2 °F /  5.7 °C 29.71 in /  1006 hPa ESE 7.0 mph /  11.3 km/h 14.0 mph /  22.5 km/h 76 % 0.00 in /  0 mm 250 W/m2
08:54 49.6 °F /  9.8 °C 42.0 °F /  5.6 °C 29.71 in /  1006 hPa ESE 8.0 mph /  12.9 km/h 13.0 mph /  20.9 km/h 75 % 0.00 in /  0 mm 244 W/m2
08:59 49.8 °F /  9.9 °C 42.2 °F /  5.7 °C 29.71 in /  1006 hPa ESE 9.0 mph /  14.5 km/h 14.0 mph /  22.5 km/h 75 % 0.00 in /  0 mm 241 W/m2
09:04 50.2 °F /  10.1 °C 42.2 °F /  5.7 °C 29.70 in /  1005.6 hPa ESE 9.0 mph /  14.5 km/h 15.0 mph /  24.1 km/h 74 % 0.00 in /  0 mm 271 W/m2
09:09 50.4 °F /  10.2 °C 42.0 °F /  5.6 °C 29.70 in /  1005.6 hPa ESE 9.0 mph /  14.5 km/h 15.0 mph /  24.1 km/h 73 % 0.00 in /  0 mm 255 W/m2
09:14 50.5 °F /  10.3 °C 42.2 °F /  5.7 °C 29.70 in /  1005.6 hPa ESE 8.0 mph /  12.9 km/h 15.0 mph /  24.1 km/h 73 % 0.00 in /  0 mm 301 W/m2
09:15 50.7 °F /  10.4 °C 42.4 °F /  5.8 °C 29.70 in /  1005.6 hPa ESE 8.0 mph /  12.9 km/h 15.0 mph /  24.1 km/h 73 % 0.00 in /  0 mm 301 W/m2
09:20 51.1 °F /  10.6 °C 42.0 °F /  5.6 °C 29.69 in /  1005.3 hPa ESE 8.0 mph /  12.9 km/h 19.0 mph /  30.6 km/h 71 % 0.00 in /  0 mm 394 W/m2
09:25 51.3 °F /  10.7 °C 41.8 °F /  5.4 °C 29.69 in /  1005.3 hPa ESE 11.0 mph /  17.7 km/h 22.0 mph /  35.4 km/h 70 % 0.00 in /  0 mm 461 W/m2
09:30 52.0 °F /  11.1 °C 42.9 °F /  6.1 °C 29.69 in /  1005.3 hPa ESE 11.0 mph /  17.7 km/h 22.0 mph /  35.4 km/h 71 % 0.00 in /  0 mm 464 W/m2
09:35 52.5 °F /  11.4 °C 43.0 °F /  6.1 °C 29.69 in /  1005.3 hPa ESE 8.0 mph /  12.9 km/h 16.0 mph /  25.7 km/h 70 % 0.00 in /  0 mm 413 W/m2
09:40 52.9 °F /  11.6 °C 43.0 °F /  6.1 °C 29.68 in /  1005 hPa ESE 8.0 mph /  12.9 km/h 16.0 mph /  25.7 km/h 69 % 0.00 in /  0 mm 513 W/m2
09:45 53.2 °F /  11.8 °C 42.9 °F /  6.1 °C 29.68 in /  1005 hPa East 8.0 mph /  12.9 km/h 18.0 mph /  29 km/h 68 % 0.00 in /  0 mm 512 W/m2
09:50 53.8 °F /  12.1 °C 43.1 °F /  6.2 °C 29.68 in /  1005 hPa East 8.0 mph /  12.9 km/h 18.0 mph /  29 km/h 67 % 0.00 in /  0 mm 543 W/m2
09:55 54.1 °F /  12.3 °C 43.4 °F /  6.3 °C 29.68 in /  1005 hPa East 8.0 mph /  12.9 km/h 19.0 mph /  30.6 km/h 67 % 0.00 in /  0 mm 580 W/m2
10:00 54.5 °F /  12.5 °C 43.4 °F /  6.3 °C 29.68 in /  1005 hPa East 8.0 mph /  12.9 km/h 19.0 mph /  30.6 km/h 66 % 0.00 in /  0 mm 605 W/m2
10:05 54.9 °F /  12.7 °C 43.7 °F /  6.5 °C 29.68 in /  1005 hPa ESE 8.0 mph /  12.9 km/h 14.0 mph /  22.5 km/h 66 % 0.00 in /  0 mm 483 W/m2
10:10 55.0 °F /  12.8 °C 43.5 °F /  6.4 °C 29.67 in /  1004.6 hPa ESE 8.0 mph /  12.9 km/h 14.0 mph /  22.5 km/h 65 % 0.00 in /  0 mm 640 W/m2
10:15 55.2 °F /  12.9 °C 43.2 °F /  6.2 °C 29.67 in /  1004.6 hPa East 8.0 mph /  12.9 km/h 18.0 mph /  29 km/h 64 % 0.00 in /  0 mm 533 W/m2
10:20 55.2 °F /  12.9 °C 42.8 °F /  6 °C 29.67 in /  1004.6 hPa East 9.0 mph /  14.5 km/h 18.0 mph /  29 km/h 63 % 0.00 in /  0 mm 441 W/m2
10:25 55.0 °F /  12.8 °C 43.5 °F /  6.4 °C 29.67 in /  1004.6 hPa ESE 9.0 mph /  14.5 km/h 15.0 mph /  24.1 km/h 65 % 0.00 in /  0 mm 448 W/m2
10:30 55.4 °F /  13 °C 43.8 °F /  6.6 °C 29.67 in /  1004.6 hPa ESE 8.0 mph /  12.9 km/h 14.0 mph /  22.5 km/h 65 % 0.00 in /  0 mm 489 W/m2
10:35 55.8 °F /  13.2 °C 43.8 °F /  6.6 °C 29.66 in /  1004.3 hPa East 8.0 mph /  12.9 km/h 14.0 mph /  22.5 km/h 64 % 0.00 in /  0 mm 526 W/m2
10:40 55.9 °F /  13.3 °C 43.5 °F /  6.4 °C 29.66 in /  1004.3 hPa ESE 9.0 mph /  14.5 km/h 21.0 mph /  33.8 km/h 63 % 0.00 in /  0 mm 587 W/m2
10:46 55.8 °F /  13.2 °C 43.3 °F /  6.3 °C 29.66 in /  1004.3 hPa ESE 10.0 mph /  16.1 km/h 21.0 mph /  33.8 km/h 63 % 0.00 in /  0 mm 578 W/m2
10:51 55.9 °F /  13.3 °C 43.5 °F /  6.4 °C 29.65 in /  1003.9 hPa ESE 10.0 mph /  16.1 km/h 21.0 mph /  33.8 km/h 63 % 0.00 in /  0 mm 603 W/m2
10:56 56.3 °F /  13.5 °C 43.4 °F /  6.3 °C 29.65 in /  1003.9 hPa ESE 10.0 mph /  16.1 km/h 21.0 mph /  33.8 km/h 62 % 0.00 in /  0 mm 492 W/m2
11:01 56.5 °F /  13.6 °C 43.6 °F /  6.4 °C 29.64 in /  1003.6 hPa ESE 9.0 mph /  14.5 km/h 19.0 mph /  30.6 km/h 62 % 0.00 in /  0 mm 403 W/m2
11:06 56.1 °F /  13.4 °C 43.3 °F /  6.3 °C 29.64 in /  1003.6 hPa ESE 9.0 mph /  14.5 km/h 19.0 mph /  30.6 km/h 62 % 0.00 in /  0 mm 374 W/m2
11:11 55.9 °F /  13.3 °C 42.7 °F /  5.9 °C 29.64 in /  1003.6 hPa ESE 11.0 mph /  17.7 km/h 20.0 mph /  32.2 km/h 61 % 0.00 in /  0 mm 432 W/m2
11:16 55.9 °F /  13.3 °C 43.1 °F /  6.2 °C 29.64 in /  1003.6 hPa ESE 10.0 mph /  16.1 km/h 20.0 mph /  32.2 km/h 62 % 0.00 in /  0 mm 483 W/m2
11:21 56.1 °F /  13.4 °C 43.3 °F /  6.3 °C 29.64 in /  1003.6 hPa ESE 9.0 mph /  14.5 km/h 18.0 mph /  29 km/h 62 % 0.00 in /  0 mm 408 W/m2
11:26 56.1 °F /  13.4 °C 43.3 °F /  6.3 °C 29.63 in /  1003.3 hPa ESE 9.0 mph /  14.5 km/h 16.0 mph /  25.7 km/h 62 % 0.00 in /  0 mm 408 W/m2
11:31 56.3 °F /  13.5 °C 43.4 °F /  6.3 °C 29.63 in /  1003.3 hPa ESE 9.0 mph /  14.5 km/h 20.0 mph /  32.2 km/h 62 % 0.00 in /  0 mm 403 W/m2
11:36 56.7 °F /  13.7 °C 43.4 °F /  6.3 °C 29.63 in /  1003.3 hPa ESE 9.0 mph /  14.5 km/h 20.0 mph /  32.2 km/h 61 % 0.00 in /  0 mm 418 W/m2
11:41 56.8 °F /  13.8 °C 43.1 °F /  6.2 °C 29.62 in /  1002.9 hPa ESE 10.0 mph /  16.1 km/h 18.0 mph /  29 km/h 60 % 0.00 in /  0 mm 561 W/m2
11:46 57.4 °F /  14.1 °C 43.6 °F /  6.4 °C 29.62 in /  1002.9 hPa ESE 10.0 mph /  16.1 km/h 18.0 mph /  29 km/h 60 % 0.00 in /  0 mm 452 W/m2
11:51 57.6 °F /  14.2 °C 43.3 °F /  6.3 °C 29.62 in /  1002.9 hPa ESE 11.0 mph /  17.7 km/h 21.0 mph /  33.8 km/h 59 % 0.00 in /  0 mm 436 W/m2
11:56 57.7 °F /  14.3 °C 43.1 °F /  6.2 °C 29.62 in /  1002.9 hPa ESE 11.0 mph /  17.7 km/h 24.0 mph /  38.6 km/h 58 % 0.00 in /  0 mm 376 W/m2
12:01 57.7 °F /  14.3 °C 42.6 °F /  5.9 °C 29.62 in /  1002.9 hPa ESE 11.0 mph /  17.7 km/h 24.0 mph /  38.6 km/h 57 % 0.00 in /  0 mm 316 W/m2
12:06 57.6 °F /  14.2 °C 42.9 °F /  6.1 °C 29.62 in /  1002.9 hPa ESE 11.0 mph /  17.7 km/h 21.0 mph /  33.8 km/h 58 % 0.00 in /  0 mm 299 W/m2
12:11 57.7 °F /  14.3 °C 43.1 °F /  6.2 °C 29.62 in /  1002.9 hPa ESE 10.0 mph /  16.1 km/h 21.0 mph /  33.8 km/h 58 % 0.00 in /  0 mm 374 W/m2
12:16 57.9 °F /  14.4 °C 42.8 °F /  6 °C 29.61 in /  1002.6 hPa ESE 10.0 mph /  16.1 km/h 24.0 mph /  38.6 km/h 57 % 0.00 in /  0 mm 425 W/m2
12:21 58.3 °F /  14.6 °C 43.1 °F /  6.2 °C 29.61 in /  1002.6 hPa ESE 11.0 mph /  17.7 km/h 24.0 mph /  38.6 km/h 57 % 0.00 in /  0 mm 452 W/m2
12:26 58.6 °F /  14.8 °C 42.5 °F /  5.8 °C 29.60 in /  1002.3 hPa ESE 11.0 mph /  17.7 km/h 24.0 mph /  38.6 km/h 55 % 0.00 in /  0 mm 492 W/m2
12:31 59.2 °F /  15.1 °C 43.0 °F /  6.1 °C 29.60 in /  1002.3 hPa ESE 12.0 mph /  19.3 km/h 24.0 mph /  38.6 km/h 55 % 0.00 in /  0 mm 348 W/m2
12:36 59.2 °F /  15.1 °C 41.6 °F /  5.3 °C 29.60 in /  1002.3 hPa ESE 13.0 mph /  20.9 km/h 24.0 mph /  38.6 km/h 52 % 0.00 in /  0 mm 533 W/m2
12:41 59.4 °F /  15.2 °C 42.2 °F /  5.7 °C 29.60 in /  1002.3 hPa ESE 13.0 mph /  20.9 km/h 24.0 mph /  38.6 km/h 53 % 0.00 in /  0 mm 376 W/m2
12:46 59.4 °F /  15.2 °C 42.2 °F /  5.7 °C 29.60 in /  1002.3 hPa ESE 12.0 mph /  19.3 km/h 21.0 mph /  33.8 km/h 53 % 0.00 in /  0 mm 457 W/m2
12:51 59.5 °F /  15.3 °C 41.9 °F /  5.5 °C 29.60 in /  1002.3 hPa ESE 11.0 mph /  17.7 km/h 21.0 mph /  33.8 km/h 52 % 0.00 in /  0 mm 148 W/m2
12:56 59.2 °F /  15.1 °C 41.6 °F /  5.3 °C 29.59 in /  1001.9 hPa ESE 11.0 mph /  17.7 km/h 22.0 mph /  35.4 km/h 52 % 0.00 in /  0 mm 190 W/m2
13:01 58.8 °F /  14.9 °C 40.7 °F /  4.8 °C 29.60 in /  1002.3 hPa ESE 12.0 mph /  19.3 km/h 22.0 mph /  35.4 km/h 51 % 0.00 in /  0 mm 183 W/m2
13:06 58.6 °F /  14.8 °C 40.0 °F /  4.4 °C 29.59 in /  1001.9 hPa ESE 11.0 mph /  17.7 km/h 22.0 mph /  35.4 km/h 50 % 0.00 in /  0 mm 193 W/m2
13:11 58.6 °F /  14.8 °C 39.0 °F /  3.9 °C 29.59 in /  1001.9 hPa ESE 11.0 mph /  17.7 km/h 21.0 mph /  33.8 km/h 48 % 0.00 in /  0 mm 388 W/m2
13:16 58.8 °F /  14.9 °C 39.7 °F /  4.3 °C 29.58 in /  1001.6 hPa SE 13.0 mph /  20.9 km/h 26.0 mph /  41.8 km/h 49 % 0.00 in /  0 mm 378 W/m2
13:21 59.5 °F /  15.3 °C 40.9 °F /  4.9 °C 29.59 in /  1001.9 hPa SE 12.0 mph /  19.3 km/h 26.0 mph /  41.8 km/h 50 % 0.00 in /  0 mm 531 W/m2
13:26 59.7 °F /  15.4 °C 38.9 °F /  3.8 °C 29.58 in /  1001.6 hPa ESE 12.0 mph /  19.3 km/h 23.0 mph /  37 km/h 46 % 0.00 in /  0 mm 301 W/m2
13:32 59.5 °F /  15.3 °C 38.7 °F /  3.7 °C 29.58 in /  1001.6 hPa ESE 15.0 mph /  24.1 km/h 25.0 mph /  40.2 km/h 46 % 0.00 in /  0 mm 348 W/m2
13:37 59.4 °F /  15.2 °C 38.6 °F /  3.7 °C 29.58 in /  1001.6 hPa ESE 16.0 mph /  25.7 km/h 25.0 mph /  40.2 km/h 46 % 0.00 in /  0 mm 364 W/m2
13:41 59.5 °F /  15.3 °C 38.7 °F /  3.7 °C 29.57 in /  1001.2 hPa ESE 15.0 mph /  24.1 km/h 25.0 mph /  40.2 km/h 46 % 0.00 in /  0 mm 267 W/m2
13:46 59.7 °F /  15.4 °C 39.4 °F /  4.1 °C 29.57 in /  1001.2 hPa ESE 11.0 mph /  17.7 km/h 23.0 mph /  37 km/h 47 % 0.00 in /  0 mm 276 W/m2
13:51 59.5 °F /  15.3 °C 39.3 °F /  4.1 °C 29.57 in /  1001.2 hPa ESE 11.0 mph /  17.7 km/h 24.0 mph /  38.6 km/h 47 % 0.00 in /  0 mm 288 W/m2
13:57 59.5 °F /  15.3 °C 39.8 °F /  4.3 °C 29.57 in /  1001.2 hPa ESE 12.0 mph /  19.3 km/h 24.0 mph /  38.6 km/h 48 % 0.00 in /  0 mm 311 W/m2
14:02 59.5 °F /  15.3 °C 40.3 °F /  4.6 °C 29.57 in /  1001.2 hPa ESE 12.0 mph /  19.3 km/h 21.0 mph /  33.8 km/h 49 % 0.00 in /  0 mm 374 W/m2
14:07 60.1 °F /  15.6 °C 41.9 °F /  5.5 °C 29.57 in /  1001.2 hPa ESE 12.0 mph /  19.3 km/h 20.0 mph /  32.2 km/h 51 % 0.00 in /  0 mm 360 W/m2
14:12 60.3 °F /  15.7 °C 42.6 °F /  5.9 °C 29.57 in /  1001.2 hPa ESE 12.0 mph /  19.3 km/h 19.0 mph /  30.6 km/h 52 % 0.00 in /  0 mm 396 W/m2
14:17 60.4 °F /  15.8 °C 42.7 °F /  5.9 °C 29.57 in /  1001.2 hPa ESE 12.0 mph /  19.3 km/h 23.0 mph /  37 km/h 52 % 0.00 in /  0 mm 800 W/m2
14:22 61.0 °F /  16.1 °C 42.7 °F /  5.9 °C 29.57 in /  1001.2 hPa ESE 12.0 mph /  19.3 km/h 24.0 mph /  38.6 km/h 51 % 0.00 in /  0 mm 856 W/m2
14:27 61.0 °F /  16.1 °C 42.7 °F /  5.9 °C 29.57 in /  1001.2 hPa East 11.0 mph /  17.7 km/h 24.0 mph /  38.6 km/h 51 % 0.00 in /  0 mm 788 W/m2
14:32 61.2 °F /  16.2 °C 42.4 °F /  5.8 °C 29.57 in /  1001.2 hPa ESE 11.0 mph /  17.7 km/h 24.0 mph /  38.6 km/h 50 % 0.00 in /  0 mm 390 W/m2
14:37 60.8 °F /  16 °C 41.5 °F /  5.3 °C 29.57 in /  1001.2 hPa ESE 15.0 mph /  24.1 km/h 26.0 mph /  41.8 km/h 49 % 0.00 in /  0 mm 689 W/m2
14:42 60.6 °F /  15.9 °C 41.3 °F /  5.2 °C 29.56 in /  1000.9 hPa ESE 16.0 mph /  25.7 km/h 27.0 mph /  43.5 km/h 49 % 0.00 in /  0 mm 686 W/m2
14:47 60.6 °F /  15.9 °C 41.9 °F /  5.5 °C 29.57 in /  1001.2 hPa ESE 15.0 mph /  24.1 km/h 27.0 mph /  43.5 km/h 50 % 0.00 in /  0 mm 357 W/m2
14:52 60.3 °F /  15.7 °C 41.0 °F /  5 °C 29.57 in /  1001.2 hPa ESE 15.0 mph /  24.1 km/h 25.0 mph /  40.2 km/h 49 % 0.00 in /  0 mm 483 W/m2
14:57 60.1 °F /  15.6 °C 41.4 °F /  5.2 °C 29.56 in /  1000.9 hPa ESE 15.0 mph /  24.1 km/h 25.0 mph /  40.2 km/h 50 % 0.00 in /  0 mm 390 W/m2
15:02 59.9 °F /  15.5 °C 41.2 °F /  5.1 °C 29.56 in /  1000.9 hPa ESE 14.0 mph /  22.5 km/h 24.0 mph /  38.6 km/h 50 % 0.00 in /  0 mm 554 W/m2
15:05 59.9 °F /  15.5 °C 42.2 °F /  5.7 °C 29.56 in /  1000.9 hPa ESE 14.0 mph /  22.5 km/h 24.0 mph /  38.6 km/h 52 % 0.00 in /  0 mm 473 W/m2
15:10 60.1 °F /  15.6 °C 42.9 °F /  6.1 °C 29.56 in /  1000.9 hPa ESE 12.0 mph /  19.3 km/h 22.0 mph /  35.4 km/h 53 % 0.00 in /  0 mm 309 W/m2
15:15 59.9 °F /  15.5 °C 43.2 °F /  6.2 °C 29.56 in /  1000.9 hPa ESE 10.0 mph /  16.1 km/h 19.0 mph /  30.6 km/h 54 % 0.00 in /  0 mm 339 W/m2
15:20 59.7 °F /  15.4 °C 43.0 °F /  6.1 °C 29.56 in /  1000.9 hPa ESE 10.0 mph /  16.1 km/h 21.0 mph /  33.8 km/h 54 % 0.00 in /  0 mm 348 W/m2
15:25 59.4 °F /  15.2 °C 42.7 °F /  5.9 °C 29.56 in /  1000.9 hPa ESE 11.0 mph /  17.7 km/h 21.0 mph /  33.8 km/h 54 % 0.00 in /  0 mm 457 W/m2
15:30 59.4 °F /  15.2 °C 42.7 °F /  5.9 °C 29.56 in /  1000.9 hPa ESE 12.0 mph /  19.3 km/h 23.0 mph /  37 km/h 54 % 0.00 in /  0 mm 418 W/m2
15:35 59.2 °F /  15.1 °C 43.0 °F /  6.1 °C 29.56 in /  1000.9 hPa ESE 11.0 mph /  17.7 km/h 23.0 mph /  37 km/h 55 % 0.00 in /  0 mm 438 W/m2
15:40 59.2 °F /  15.1 °C 43.5 °F /  6.4 °C 29.55 in /  1000.6 hPa ESE 10.0 mph /  16.1 km/h 19.0 mph /  30.6 km/h 56 % 0.00 in /  0 mm 369 W/m2
15:45 58.8 °F /  14.9 °C 43.6 °F /  6.4 °C 29.56 in /  1000.9 hPa ESE 11.0 mph /  17.7 km/h 19.0 mph /  30.6 km/h 57 % 0.00 in /  0 mm 455 W/m2
15:50 58.8 °F /  14.9 °C 43.6 °F /  6.4 °C 29.56 in /  1000.9 hPa East 10.0 mph /  16.1 km/h 20.0 mph /  32.2 km/h 57 % 0.00 in /  0 mm 432 W/m2
15:55 58.6 °F /  14.8 °C 44.3 °F /  6.8 °C 29.56 in /  1000.9 hPa East 11.0 mph /  17.7 km/h 20.0 mph /  32.2 km/h 59 % 0.00 in /  0 mm 504 W/m2
16:01 58.8 °F /  14.9 °C 44.5 °F /  6.9 °C 29.56 in /  1000.9 hPa ESE 10.0 mph /  16.1 km/h 22.0 mph /  35.4 km/h 59 % 0.00 in /  0 mm 557 W/m2
16:06 58.6 °F /  14.8 °C 44.3 °F /  6.8 °C 29.56 in /  1000.9 hPa East 11.0 mph /  17.7 km/h 23.0 mph /  37 km/h 59 % 0.00 in /  0 mm 645 W/m2
16:11 59.0 °F /  15 °C 44.7 °F /  7.1 °C 29.55 in /  1000.6 hPa East 11.0 mph /  17.7 km/h 23.0 mph /  37 km/h 59 % 0.00 in /  0 mm 455 W/m2
16:16 58.8 °F /  14.9 °C 45.0 °F /  7.2 °C 29.55 in /  1000.6 hPa ESE 11.0 mph /  17.7 km/h 21.0 mph /  33.8 km/h 60 % 0.00 in /  0 mm 316 W/m2
16:21 58.6 °F /  14.8 °C 44.8 °F /  7.1 °C 29.55 in /  1000.6 hPa ESE 10.0 mph /  16.1 km/h 21.0 mph /  33.8 km/h 60 % 0.00 in /  0 mm 422 W/m2
16:26 58.8 °F /  14.9 °C 45.0 °F /  7.2 °C 29.55 in /  1000.6 hPa ESE 9.0 mph /  14.5 km/h 21.0 mph /  33.8 km/h 60 % 0.00 in /  0 mm 475 W/m2
16:31 58.8 °F /  14.9 °C 45.0 °F /  7.2 °C 29.55 in /  1000.6 hPa ESE 9.0 mph /  14.5 km/h 18.0 mph /  29 km/h 60 % 0.00 in /  0 mm 248 W/m2
16:36 58.5 °F /  14.7 °C 44.2 °F /  6.8 °C 29.55 in /  1000.6 hPa ESE 11.0 mph /  17.7 km/h 25.0 mph /  40.2 km/h 59 % 0.00 in /  0 mm 221 W/m2
16:41 58.1 °F /  14.5 °C 44.7 °F /  7.1 °C 29.55 in /  1000.6 hPa ESE 11.0 mph /  17.7 km/h 25.0 mph /  40.2 km/h 61 % 0.00 in /  0 mm 237 W/m2
16:46 57.7 °F /  14.3 °C 44.4 °F /  6.9 °C 29.55 in /  1000.6 hPa ESE 9.0 mph /  14.5 km/h 15.0 mph /  24.1 km/h 61 % 0.00 in /  0 mm 225 W/m2
16:51 57.6 °F /  14.2 °C 44.6 °F /  7 °C 29.55 in /  1000.6 hPa ESE 9.0 mph /  14.5 km/h 16.0 mph /  25.7 km/h 62 % 0.00 in /  0 mm 236 W/m2
16:56 57.4 °F /  14.1 °C 44.9 °F /  7.2 °C 29.55 in /  1000.6 hPa ESE 10.0 mph /  16.1 km/h 18.0 mph /  29 km/h 63 % 0.00 in /  0 mm 248 W/m2
17:01 57.4 °F /  14.1 °C 44.9 °F /  7.2 °C 29.54 in /  1000.2 hPa ESE 9.0 mph /  14.5 km/h 18.0 mph /  29 km/h 63 % 0.00 in /  0 mm 207 W/m2
17:06 57.4 °F /  14.1 °C 44.9 °F /  7.2 °C 29.54 in /  1000.2 hPa ESE 9.0 mph /  14.5 km/h 18.0 mph /  29 km/h 63 % 0.00 in /  0 mm 165 W/m2
17:11 57.0 °F /  13.9 °C 44.5 °F /  6.9 °C 29.54 in /  1000.2 hPa East 9.0 mph /  14.5 km/h 18.0 mph /  29 km/h 63 % 0.00 in /  0 mm 162 W/m2
17:16 56.8 °F /  13.8 °C 44.8 °F /  7.1 °C 29.54 in /  1000.2 hPa ESE 10.0 mph /  16.1 km/h 18.0 mph /  29 km/h 64 % 0.00 in /  0 mm 178 W/m2
17:21 56.7 °F /  13.7 °C 44.6 °F /  7 °C 29.54 in /  1000.2 hPa ESE 9.0 mph /  14.5 km/h 18.0 mph /  29 km/h 64 % 0.00 in /  0 mm 169 W/m2
17:26 56.7 °F /  13.7 °C 45.0 °F /  7.2 °C 29.54 in /  1000.2 hPa East 8.0 mph /  12.9 km/h 18.0 mph /  29 km/h 65 % 0.00 in /  0 mm 135 W/m2
17:31 56.5 °F /  13.6 °C 44.9 °F /  7.2 °C 29.54 in /  1000.2 hPa East 8.0 mph /  12.9 km/h 14.0 mph /  22.5 km/h 65 % 0.00 in /  0 mm 135 W/m2
17:36 56.5 °F /  13.6 °C 44.9 °F /  7.2 °C 29.54 in /  1000.2 hPa East 7.0 mph /  11.3 km/h 13.0 mph /  20.9 km/h 65 % 0.00 in /  0 mm 137 W/m2
17:41 56.5 °F /  13.6 °C 44.9 °F /  7.2 °C 29.54 in /  1000.2 hPa East 7.0 mph /  11.3 km/h 13.0 mph /  20.9 km/h 65 % 0.00 in /  0 mm 137 W/m2
17:46 56.5 °F /  13.6 °C 44.9 °F /  7.2 °C 29.53 in /  999.9 hPa East 7.0 mph /  11.3 km/h 16.0 mph /  25.7 km/h 65 % 0.00 in /  0 mm 123 W/m2
17:51 56.5 °F /  13.6 °C 44.9 °F /  7.2 °C 29.54 in /  1000.2 hPa ESE 7.0 mph /  11.3 km/h 16.0 mph /  25.7 km/h 65 % 0.00 in /  0 mm 125 W/m2
17:56 56.7 °F /  13.7 °C 45.4 °F /  7.4 °C 29.54 in /  1000.2 hPa East 6.0 mph /  9.7 km/h 13.0 mph /  20.9 km/h 66 % 0.00 in /  0 mm 135 W/m2
18:01 56.7 °F /  13.7 °C 45.0 °F /  7.2 °C 29.54 in /  1000.2 hPa East 7.0 mph /  11.3 km/h 12.0 mph /  19.3 km/h 65 % 0.00 in /  0 mm 120 W/m2
18:06 56.7 °F /  13.7 °C 45.0 °F /  7.2 °C 29.54 in /  1000.2 hPa East 7.0 mph /  11.3 km/h 12.0 mph /  19.3 km/h 65 % 0.00 in /  0 mm 104 W/m2
18:11 56.7 °F /  13.7 °C 45.0 °F /  7.2 °C 29.54 in /  1000.2 hPa East 6.0 mph /  9.7 km/h 12.0 mph /  19.3 km/h 65 % 0.00 in /  0 mm 88 W/m2
18:16 56.5 °F /  13.6 °C 44.9 °F /  7.2 °C 29.53 in /  999.9 hPa East 6.0 mph /  9.7 km/h 11.0 mph /  17.7 km/h 65 % 0.00 in /  0 mm 97 W/m2
18:21 56.5 °F /  13.6 °C 44.9 °F /  7.2 °C 29.53 in /  999.9 hPa East 7.0 mph /  11.3 km/h 14.0 mph /  22.5 km/h 65 % 0.00 in /  0 mm 121 W/m2
18:26 56.3 °F /  13.5 °C 45.1 °F /  7.3 °C 29.53 in /  999.9 hPa East 7.0 mph /  11.3 km/h 14.0 mph /  22.5 km/h 66 % 0.00 in /  0 mm 125 W/m2
18:31 56.3 °F /  13.5 °C 45.1 °F /  7.3 °C 29.53 in /  999.9 hPa East 7.0 mph /  11.3 km/h 13.0 mph /  20.9 km/h 66 % 0.00 in /  0 mm 111 W/m2
18:36 56.3 °F /  13.5 °C 45.1 °F /  7.3 °C 29.53 in /  999.9 hPa East 7.0 mph /  11.3 km/h 13.0 mph /  20.9 km/h 66 % 0.00 in /  0 mm 132 W/m2
18:41 56.3 °F /  13.5 °C 45.5 °F /  7.5 °C 29.53 in /  999.9 hPa East 6.0 mph /  9.7 km/h 13.0 mph /  20.9 km/h 67 % 0.00 in /  0 mm 111 W/m2
18:46 56.1 °F /  13.4 °C 45.3 °F /  7.4 °C 29.53 in /  999.9 hPa East 6.0 mph /  9.7 km/h 13.0 mph /  20.9 km/h 67 % 0.00 in /  0 mm 98 W/m2
18:51 56.1 °F /  13.4 °C 45.3 °F /  7.4 °C 29.53 in /  999.9 hPa East 6.0 mph /  9.7 km/h 10.0 mph /  16.1 km/h 67 % 0.00 in /  0 mm 84 W/m2
18:56 56.1 °F /  13.4 °C 45.3 °F /  7.4 °C 29.54 in /  1000.2 hPa East 5.0 mph /  8 km/h 13.0 mph /  20.9 km/h 67 % 0.00 in /  0 mm 83 W/m2
19:01 56.1 °F /  13.4 °C 45.3 °F /  7.4 °C 29.53 in /  999.9 hPa East 5.0 mph /  8 km/h 13.0 mph /  20.9 km/h 67 % 0.00 in /  0 mm 81 W/m2
19:06 55.9 °F /  13.3 °C 45.1 °F /  7.3 °C 29.53 in /  999.9 hPa East 5.0 mph /  8 km/h 11.0 mph /  17.7 km/h 67 % 0.00 in /  0 mm 81 W/m2
19:11 55.8 °F /  13.2 °C 45.0 °F /  7.2 °C 29.53 in /  999.9 hPa East 6.0 mph /  9.7 km/h 11.0 mph /  17.7 km/h 67 % 0.00 in /  0 mm 67 W/m2
19:16 55.8 °F /  13.2 °C 45.0 °F /  7.2 °C 29.54 in /  1000.2 hPa East 6.0 mph /  9.7 km/h 11.0 mph /  17.7 km/h 67 % 0.00 in /  0 mm 51 W/m2
19:21 55.6 °F /  13.1 °C 45.2 °F /  7.3 °C 29.54 in /  1000.2 hPa East 6.0 mph /  9.7 km/h 11.0 mph /  17.7 km/h 68 % 0.00 in /  0 mm 40 W/m2
19:26 55.2 °F /  12.9 °C 44.8 °F /  7.1 °C 29.54 in /  1000.2 hPa East 5.0 mph /  8 km/h 11.0 mph /  17.7 km/h 68 % 0.00 in /  0 mm 35 W/m2
19:31 55.2 °F /  12.9 °C 44.8 °F /  7.1 °C 29.54 in /  1000.2 hPa East 6.0 mph /  9.7 km/h 11.0 mph /  17.7 km/h 68 % 0.00 in /  0 mm 35 W/m2
19:33 55.2 °F /  12.9 °C 44.8 °F /  7.1 °C 29.54 in /  1000.2 hPa East 6.0 mph /  9.7 km/h 11.0 mph /  17.7 km/h 68 % 0.00 in /  0 mm 35 W/m2
19:38 55.0 °F /  12.8 °C 44.7 °F /  7.1 °C 29.54 in /  1000.2 hPa East 6.0 mph /  9.7 km/h 10.0 mph /  16.1 km/h 68 % 0.00 in /  0 mm 30 W/m2
19:43 55.0 °F /  12.8 °C 44.7 °F /  7.1 °C 29.54 in /  1000.2 hPa East 6.0 mph /  9.7 km/h 10.0 mph /  16.1 km/h 68 % 0.00 in /  0 mm 28 W/m2
19:48 55.0 °F /  12.8 °C 45.1 °F /  7.3 °C 29.54 in /  1000.2 hPa East 6.0 mph /  9.7 km/h 10.0 mph /  16.1 km/h 69 % 0.00 in /  0 mm 25 W/m2
19:53 54.9 °F /  12.7 °C 44.9 °F /  7.2 °C 29.54 in /  1000.2 hPa East 4.0 mph /  6.4 km/h 10.0 mph /  16.1 km/h 69 % 0.00 in /  0 mm 18 W/m2
19:58 54.7 °F /  12.6 °C 45.1 °F /  7.3 °C 29.54 in /  1000.2 hPa East 4.0 mph /  6.4 km/h 10.0 mph /  16.1 km/h 70 % 0.00 in /  0 mm 14 W/m2
20:03 54.7 °F /  12.6 °C 45.1 °F /  7.3 °C 29.54 in /  1000.2 hPa East 5.0 mph /  8 km/h 10.0 mph /  16.1 km/h 70 % 0.00 in /  0 mm 11 W/m2
20:08 54.3 °F /  12.4 °C 45.1 °F /  7.3 °C 29.54 in /  1000.2 hPa ENE 5.0 mph /  8 km/h 13.0 mph /  20.9 km/h 71 % 0.00 in /  0 mm 7 W/m2
20:13 54.1 °F /  12.3 °C 44.9 °F /  7.2 °C 29.54 in /  1000.2 hPa ENE 6.0 mph /  9.7 km/h 13.0 mph /  20.9 km/h 71 % 0.00 in /  0 mm 5 W/m2
20:18 54.1 °F /  12.3 °C 44.9 °F /  7.2 °C 29.54 in /  1000.2 hPa ENE 5.0 mph /  8 km/h 10.0 mph /  16.1 km/h 71 % 0.00 in /  0 mm 0 W/m2
20:23 54.0 °F /  12.2 °C 44.8 °F /  7.1 °C 29.54 in /  1000.2 hPa ENE 5.0 mph /  8 km/h 11.0 mph /  17.7 km/h 71 % 0.00 in /  0 mm 0 W/m2
20:24 54.0 °F /  12.2 °C 44.8 °F /  7.1 °C 29.54 in /  1000.2 hPa ENE 5.0 mph /  8 km/h 12.0 mph /  19.3 km/h 71 % 0.00 in /  0 mm 0 W/m2
20:29 53.8 °F /  12.1 °C 45.0 °F /  7.2 °C 29.55 in /  1000.6 hPa East 5.0 mph /  8 km/h 12.0 mph /  19.3 km/h 72 % 0.00 in /  0 mm 0 W/m2
20:34 53.8 °F /  12.1 °C 45.0 °F /  7.2 °C 29.55 in /  1000.6 hPa East 5.0 mph /  8 km/h 10.0 mph /  16.1 km/h 72 % 0.00 in /  0 mm 0 W/m2
20:39 53.6 °F /  12 °C 44.8 °F /  7.1 °C 29.55 in /  1000.6 hPa East 5.0 mph /  8 km/h 9.0 mph /  14.5 km/h 72 % 0.00 in /  0 mm 0 W/m2
20:44 53.4 °F /  11.9 °C 44.6 °F /  7 °C 29.55 in /  1000.6 hPa East 6.0 mph /  9.7 km/h 12.0 mph /  19.3 km/h 72 % 0.00 in /  0 mm 0 W/m2
20:49 53.4 °F /  11.9 °C 45.0 °F /  7.2 °C 29.55 in /  1000.6 hPa East 6.0 mph /  9.7 km/h 12.0 mph /  19.3 km/h 73 % 0.00 in /  0 mm 0 W/m2
20:54 53.2 °F /  11.8 °C 44.8 °F /  7.1 °C 29.55 in /  1000.6 hPa ENE 6.0 mph /  9.7 km/h 11.0 mph /  17.7 km/h 73 % 0.00 in /  0 mm 0 W/m2
20:59 53.2 °F /  11.8 °C 44.8 °F /  7.1 °C 29.55 in /  1000.6 hPa ENE 6.0 mph /  9.7 km/h 11.0 mph /  17.7 km/h 73 % 0.00 in /  0 mm 0 W/m2
21:04 53.1 °F /  11.7 °C 44.6 °F /  7 °C 29.55 in /  1000.6 hPa East 6.0 mph /  9.7 km/h 11.0 mph /  17.7 km/h 73 % 0.00 in /  0 mm 0 W/m2
21:09 53.1 °F /  11.7 °C 44.6 °F /  7 °C 29.55 in /  1000.6 hPa ENE 6.0 mph /  9.7 km/h 11.0 mph /  17.7 km/h 73 % 0.00 in /  0 mm 0 W/m2
21:14 52.9 °F /  11.6 °C 44.8 °F /  7.1 °C 29.54 in /  1000.2 hPa ENE 7.0 mph /  11.3 km/h 12.0 mph /  19.3 km/h 74 % 0.00 in /  0 mm 0 W/m2
21:19 52.9 °F /  11.6 °C 44.8 °F /  7.1 °C 29.54 in /  1000.2 hPa ENE 6.0 mph /  9.7 km/h 12.0 mph /  19.3 km/h 74 % 0.00 in /  0 mm 0 W/m2
21:24 52.7 °F /  11.5 °C 44.6 °F /  7 °C 29.55 in /  1000.6 hPa ENE 6.0 mph /  9.7 km/h 10.0 mph /  16.1 km/h 74 % 0.00 in /  0 mm 0 W/m2
21:29 52.5 °F /  11.4 °C 44.5 °F /  6.9 °C 29.54 in /  1000.2 hPa ENE 6.0 mph /  9.7 km/h 10.0 mph /  16.1 km/h 74 % 0.00 in /  0 mm 0 W/m2
21:34 52.5 °F /  11.4 °C 44.5 °F /  6.9 °C 29.55 in /  1000.6 hPa East 6.0 mph /  9.7 km/h 11.0 mph /  17.7 km/h 74 % 0.00 in /  0 mm 0 W/m2
21:39 52.3 °F /  11.3 °C 44.6 °F /  7 °C 29.55 in /  1000.6 hPa East 5.0 mph /  8 km/h 11.0 mph /  17.7 km/h 75 % 0.00 in /  0 mm 0 W/m2
21:40 52.3 °F /  11.3 °C 44.6 °F /  7 °C 29.55 in /  1000.6 hPa East 4.0 mph /  6.4 km/h 11.0 mph /  17.7 km/h 75 % 0.00 in /  0 mm 0 W/m2
21:45 52.3 °F /  11.3 °C 44.6 °F /  7 °C 29.55 in /  1000.6 hPa East 3.0 mph /  4.8 km/h 9.0 mph /  14.5 km/h 75 % 0.00 in /  0 mm 0 W/m2
21:50 52.3 °F /  11.3 °C 44.6 °F /  7 °C 29.55 in /  1000.6 hPa East 5.0 mph /  8 km/h 12.0 mph /  19.3 km/h 75 % 0.00 in /  0 mm 0 W/m2
21:55 52.3 °F /  11.3 °C 44.6 °F /  7 °C 29.55 in /  1000.6 hPa East 5.0 mph /  8 km/h 12.0 mph /  19.3 km/h 75 % 0.00 in /  0 mm 0 W/m2
22:00 52.3 °F /  11.3 °C 44.6 °F /  7 °C 29.55 in /  1000.6 hPa East 4.0 mph /  6.4 km/h 10.0 mph /  16.1 km/h 75 % 0.00 in /  0 mm 0 W/m2
22:05 52.3 °F /  11.3 °C 44.6 °F /  7 °C 29.55 in /  1000.6 hPa East 4.0 mph /  6.4 km/h 10.0 mph /  16.1 km/h 75 % 0.00 in /  0 mm 0 W/m2
22:10 52.2 °F /  11.2 °C 44.5 °F /  6.9 °C 29.55 in /  1000.6 hPa East 4.0 mph /  6.4 km/h 10.0 mph /  16.1 km/h 75 % 0.00 in /  0 mm 0 W/m2
22:15 52.2 °F /  11.2 °C 44.5 °F /  6.9 °C 29.55 in /  1000.6 hPa East 4.0 mph /  6.4 km/h 8.0 mph /  12.9 km/h 75 % 0.00 in /  0 mm 0 W/m2
22:20 52.2 °F /  11.2 °C 44.5 °F /  6.9 °C 29.55 in /  1000.6 hPa East 3.0 mph /  4.8 km/h 8.0 mph /  12.9 km/h 75 % 0.00 in /  0 mm 0 W/m2
22:25 52.0 °F /  11.1 °C 44.3 °F /  6.8 °C 29.55 in /  1000.6 hPa East 2.0 mph /  3.2 km/h 8.0 mph /  12.9 km/h 75 % 0.00 in /  0 mm 0 W/m2
22:30 52.0 °F /  11.1 °C 44.6 °F /  7 °C 29.55 in /  1000.6 hPa East 2.0 mph /  3.2 km/h 6.0 mph /  9.7 km/h 76 % 0.00 in /  0 mm 0 W/m2
22:35 52.0 °F /  11.1 °C 44.6 °F /  7 °C 29.55 in /  1000.6 hPa East 2.0 mph /  3.2 km/h 7.0 mph /  11.3 km/h 76 % 0.00 in /  0 mm 0 W/m2
22:40 51.8 °F /  11 °C 44.5 °F /  6.9 °C 29.55 in /  1000.6 hPa East 3.0 mph /  4.8 km/h 7.0 mph /  11.3 km/h 76 % 0.00 in /  0 mm 0 W/m2
22:45 51.8 °F /  11 °C 44.5 °F /  6.9 °C 29.55 in /  1000.6 hPa East 3.0 mph /  4.8 km/h 7.0 mph /  11.3 km/h 76 % 0.00 in /  0 mm 0 W/m2
22:50 51.6 °F /  10.9 °C 44.3 °F /  6.8 °C 29.55 in /  1000.6 hPa East 2.0 mph /  3.2 km/h 7.0 mph /  11.3 km/h 76 % 0.00 in /  0 mm 0 W/m2
22:55 51.6 °F /  10.9 °C 44.3 °F /  6.8 °C 29.55 in /  1000.6 hPa East 2.0 mph /  3.2 km/h 7.0 mph /  11.3 km/h 76 % 0.00 in /  0 mm 0 W/m2
23:00 51.4 °F /  10.8 °C 44.5 °F /  6.9 °C 29.55 in /  1000.6 hPa East 3.0 mph /  4.8 km/h 7.0 mph /  11.3 km/h 77 % 0.00 in /  0 mm 0 W/m2
23:05 51.4 °F /  10.8 °C 44.5 °F /  6.9 °C 29.55 in /  1000.6 hPa East 2.0 mph /  3.2 km/h 7.0 mph /  11.3 km/h 77 % 0.00 in /  0 mm 0 W/m2
23:10 51.4 °F /  10.8 °C 44.5 °F /  6.9 °C 29.55 in /  1000.6 hPa ENE 1.0 mph /  1.6 km/h 7.0 mph /  11.3 km/h 77 % 0.00 in /  0 mm 0 W/m2
23:16 51.3 °F /  10.7 °C 44.3 °F /  6.8 °C 29.55 in /  1000.6 hPa ENE 1.0 mph /  1.6 km/h 5.0 mph /  8 km/h 77 % 0.00 in /  0 mm 0 W/m2
23:21 51.3 °F /  10.7 °C 44.3 °F /  6.8 °C 29.55 in /  1000.6 hPa Calm   2.0 mph /  3.2 km/h 77 % 0.00 in /  0 mm 0 W/m2
23:26 51.1 °F /  10.6 °C 44.1 °F /  6.7 °C 29.55 in /  1000.6 hPa Calm   4.0 mph /  6.4 km/h 77 % 0.00 in /  0 mm 0 W/m2
23:31 51.1 °F /  10.6 °C 44.5 °F /  6.9 °C 29.56 in /  1000.9 hPa Calm   4.0 mph /  6.4 km/h 78 % 0.00 in /  0 mm 0 W/m2
23:36 50.9 °F /  10.5 °C 44.3 °F /  6.8 °C 29.56 in /  1000.9 hPa Calm   2.0 mph /  3.2 km/h 78 % 0.00 in /  0 mm 0 W/m2
23:41 50.9 °F /  10.5 °C 44.3 °F /  6.8 °C 29.56 in /  1000.9 hPa Calm   5.0 mph /  8 km/h 78 % 0.00 in /  0 mm 0 W/m2
23:46 50.7 °F /  10.4 °C 44.1 °F /  6.7 °C 29.56 in /  1000.9 hPa ENE 2.0 mph /  3.2 km/h 6.0 mph /  9.7 km/h 78 % 0.00 in /  0 mm 0 W/m2
23:51 50.7 °F /  10.4 °C 44.4 °F /  6.9 °C 29.55 in /  1000.6 hPa NE 2.0 mph /  3.2 km/h 6.0 mph /  9.7 km/h 79 % 0.00 in /  0 mm 0 W/m2
23:56 50.7 °F /  10.4 °C 44.4 °F /  6.9 °C 29.56 in /  1000.9 hPa NE 2.0 mph /  3.2 km/h 6.0 mph /  9.7 km/h 79 % 0.00 in /  0 mm 0 W/m2
Delerius-Weather
Compliments of Weather Underground - 2.25 mb

Data updates at regular intervals.